createdAt,value
2023-05-09T00:00:46.512Z,64.05
2023-05-09T00:01:46.604Z,64.06
2023-05-09T00:02:46.502Z,64.03
2023-05-09T00:03:46.509Z,64.10
2023-05-09T00:04:46.552Z,64.81
2023-05-09T00:05:46.572Z,65.09
2023-05-09T00:06:46.669Z,65.54
2023-05-09T00:07:46.739Z,65.16
2023-05-09T00:08:46.792Z,65.76
2023-05-09T00:09:46.812Z,65.61
2023-05-09T00:10:46.797Z,64.99
2023-05-09T00:11:46.921Z,64.54
2023-05-09T00:12:46.945Z,64.53
2023-05-09T00:13:46.990Z,64.64
2023-05-09T00:14:47.115Z,64.49
2023-05-09T00:15:47.043Z,64.65
2023-05-09T00:16:47.149Z,64.91
2023-05-09T00:17:47.209Z,64.85
2023-05-09T00:18:47.201Z,65.18
2023-05-09T00:19:47.234Z,64.35
2023-05-09T00:20:47.197Z,64.67
2023-05-09T00:21:47.226Z,64.11
2023-05-09T00:22:47.240Z,64.46
2023-05-09T00:23:47.227Z,63.68
2023-05-09T00:24:47.302Z,64.00
2023-05-09T00:25:47.321Z,64.52
2023-05-09T00:26:47.318Z,63.75
2023-05-09T00:27:47.386Z,64.40
2023-05-09T00:28:47.448Z,63.88
2023-05-09T00:29:47.431Z,63.85
2023-05-09T00:30:47.533Z,63.62
2023-05-09T00:31:47.503Z,63.91
2023-05-09T00:32:47.547Z,64.09
2023-05-09T00:33:47.593Z,63.32
2023-05-09T00:34:47.574Z,63.47
2023-05-09T00:35:47.641Z,63.87
2023-05-09T00:36:47.655Z,63.43
2023-05-09T00:37:47.653Z,63.49
2023-05-09T00:38:47.669Z,63.51
2023-05-09T00:39:47.720Z,63.37
2023-05-09T00:40:47.777Z,63.51
2023-05-09T00:41:47.751Z,63.68
2023-05-09T00:42:47.776Z,63.43
2023-05-09T00:43:47.801Z,63.92
2023-05-09T00:44:47.805Z,63.62
2023-05-09T00:45:47.909Z,63.48
2023-05-09T00:46:47.931Z,63.49
2023-05-09T00:47:47.956Z,63.29
2023-05-09T00:48:47.831Z,63.41
2023-05-09T00:49:47.892Z,63.53
2023-05-09T00:50:47.840Z,63.59
2023-05-09T00:51:47.851Z,63.30
2023-05-09T00:52:47.924Z,63.53
2023-05-09T00:53:47.858Z,63.81
2023-05-09T00:54:47.904Z,64.24
2023-05-09T00:55:47.936Z,64.92
2023-05-09T00:56:47.887Z,64.97
2023-05-09T00:57:47.919Z,65.13
2023-05-09T00:58:47.937Z,65.28
2023-05-09T00:59:47.943Z,64.77
2023-05-09T01:00:48.228Z,65.27
2023-05-09T01:01:48.062Z,65.84
2023-05-09T01:02:48.131Z,65.58
2023-05-09T01:03:48.035Z,65.30
2023-05-09T01:04:48.016Z,65.66
2023-05-09T01:05:47.987Z,65.95
2023-05-09T01:06:48.019Z,66.37
2023-05-09T01:07:47.963Z,65.93
2023-05-09T01:08:47.967Z,65.82
2023-05-09T01:09:48.032Z,65.58
2023-05-09T01:10:48.034Z,65.63
2023-05-09T01:11:48.051Z,66.37
2023-05-09T01:12:48.057Z,65.89
2023-05-09T01:13:48.050Z,65.18
2023-05-09T01:14:48.045Z,64.71
2023-05-09T01:15:48.140Z,65.20
2023-05-09T01:16:48.139Z,65.10
2023-05-09T01:17:48.175Z,65.26
2023-05-09T01:18:48.258Z,65.84
2023-05-09T01:19:48.275Z,66.45
2023-05-09T01:20:48.179Z,66.55
2023-05-09T01:21:48.223Z,65.79
2023-05-09T01:22:48.248Z,65.39
2023-05-09T01:23:48.247Z,65.19
2023-05-09T01:24:48.253Z,64.98
2023-05-09T01:25:48.318Z,65.52
2023-05-09T01:26:48.335Z,65.86
2023-05-09T01:27:48.299Z,66.71
2023-05-09T01:28:48.377Z,66.41
2023-05-09T01:29:48.389Z,66.76
2023-05-09T01:30:48.396Z,66.72
2023-05-09T01:31:48.489Z,66.30
2023-05-09T01:32:48.428Z,65.67
2023-05-09T01:33:48.381Z,65.93
2023-05-09T01:34:48.489Z,66.18
2023-05-09T01:35:48.436Z,66.22
2023-05-09T01:36:48.433Z,65.86
2023-05-09T01:37:48.434Z,65.92
2023-05-09T01:38:48.487Z,66.00
2023-05-09T01:39:48.484Z,65.78
2023-05-09T01:40:48.484Z,65.72
2023-05-09T01:41:48.504Z,65.48
2023-05-09T01:42:48.520Z,65.12
2023-05-09T01:43:48.520Z,65.15
2023-05-09T01:44:48.518Z,65.34
2023-05-09T01:45:48.538Z,65.40
2023-05-09T01:46:48.558Z,65.85
2023-05-09T01:47:48.612Z,66.10
2023-05-09T01:48:48.548Z,65.89
2023-05-09T01:49:48.542Z,65.63
2023-05-09T01:50:48.681Z,65.87
2023-05-09T01:51:48.534Z,65.95
2023-05-09T01:52:48.604Z,65.47
2023-05-09T01:53:48.605Z,65.66
2023-05-09T01:54:48.636Z,65.40
2023-05-09T01:55:48.633Z,65.36
2023-05-09T01:56:48.605Z,65.18
2023-05-09T01:57:48.615Z,65.76
2023-05-09T01:58:48.600Z,64.99
2023-05-09T01:59:48.626Z,64.72
2023-05-09T02:00:48.683Z,64.73
2023-05-09T02:01:48.666Z,65.34
2023-05-09T02:02:48.870Z,65.25
2023-05-09T02:03:48.628Z,66.36
2023-05-09T02:04:48.616Z,65.81
2023-05-09T02:05:48.644Z,65.60
2023-05-09T02:06:48.738Z,65.16
2023-05-09T02:07:48.688Z,65.68
2023-05-09T02:08:48.668Z,65.16
2023-05-09T02:09:48.673Z,65.17
2023-05-09T02:10:48.642Z,64.86
2023-05-09T02:11:48.706Z,64.55
2023-05-09T02:12:48.763Z,64.48
2023-05-09T02:13:48.647Z,64.43
2023-05-09T02:14:48.690Z,64.92
2023-05-09T02:15:48.694Z,64.32
2023-05-09T02:16:48.703Z,64.74
2023-05-09T02:17:48.709Z,65.37
2023-05-09T02:18:48.690Z,64.81
2023-05-09T02:19:48.728Z,64.71
2023-05-09T02:20:48.758Z,64.70
2023-05-09T02:21:48.743Z,64.68
2023-05-09T02:22:48.866Z,64.43
2023-05-09T02:23:48.875Z,64.53
2023-05-09T02:24:48.971Z,64.28
2023-05-09T02:25:48.966Z,64.09
2023-05-09T02:26:49.011Z,64.09
2023-05-09T02:27:49.048Z,63.88
2023-05-09T02:28:49.064Z,64.02
2023-05-09T02:29:49.160Z,63.94
2023-05-09T02:30:49.222Z,63.81
2023-05-09T02:31:49.305Z,64.46
2023-05-09T02:32:49.309Z,64.49
2023-05-09T02:33:49.327Z,64.96
2023-05-09T02:34:49.312Z,64.79
2023-05-09T02:35:49.352Z,65.01
2023-05-09T02:36:49.378Z,65.58
2023-05-09T02:37:49.417Z,66.32
2023-05-09T02:38:49.490Z,66.80
2023-05-09T02:39:49.435Z,66.31
2023-05-09T02:40:50.976Z,66.78
2023-05-09T02:41:49.506Z,66.48
2023-05-09T02:42:49.463Z,65.64
2023-05-09T02:43:49.472Z,65.49
2023-05-09T02:44:49.453Z,65.19
2023-05-09T02:45:49.439Z,65.35
2023-05-09T02:46:49.455Z,65.57
2023-05-09T02:47:49.513Z,65.36
2023-05-09T02:48:49.449Z,65.17
2023-05-09T02:49:49.410Z,65.40
2023-05-09T02:50:49.421Z,65.57
2023-05-09T02:51:49.425Z,65.65
2023-05-09T02:52:49.397Z,65.26
2023-05-09T02:53:49.388Z,65.40
2023-05-09T02:54:49.488Z,65.80
2023-05-09T02:55:49.405Z,66.14
2023-05-09T02:56:49.408Z,66.13
2023-05-09T02:57:54.101Z,66.32
2023-05-09T02:58:50.361Z,66.18
2023-05-09T02:59:49.335Z,67.03
2023-05-09T03:00:49.353Z,67.26
2023-05-09T03:01:49.401Z,66.66
2023-05-09T03:02:49.417Z,66.41
2023-05-09T03:03:49.424Z,65.97
2023-05-09T03:04:49.344Z,66.11
2023-05-09T03:05:49.330Z,65.61
2023-05-09T03:06:49.323Z,65.45
2023-05-09T03:07:49.320Z,65.63
2023-05-09T03:08:49.291Z,65.88
2023-05-09T03:09:49.349Z,65.52
2023-05-09T03:10:49.406Z,65.17
2023-05-09T03:11:49.304Z,65.91
2023-05-09T03:12:49.345Z,65.66
2023-05-09T03:13:49.325Z,66.24
2023-05-09T03:14:49.376Z,66.65
2023-05-09T03:15:49.473Z,66.04
2023-05-09T03:16:49.516Z,65.61
2023-05-09T03:17:49.587Z,66.03
2023-05-09T03:18:49.568Z,65.68
2023-05-09T03:19:49.608Z,65.80
2023-05-09T03:20:49.723Z,65.64
2023-05-09T03:21:49.701Z,65.48
2023-05-09T03:22:49.790Z,65.45
2023-05-09T03:23:49.815Z,65.26
2023-05-09T03:24:49.866Z,65.79
2023-05-09T03:25:49.935Z,66.00
2023-05-09T03:26:49.974Z,66.33
2023-05-09T03:27:50.047Z,66.47
2023-05-09T03:28:50.023Z,66.51
2023-05-09T03:29:50.059Z,65.68
2023-05-09T03:30:50.076Z,66.11
2023-05-09T03:31:50.197Z,66.27
2023-05-09T03:32:50.188Z,66.06
2023-05-09T03:33:50.161Z,65.99
2023-05-09T03:34:50.257Z,65.26
2023-05-09T03:35:50.336Z,65.17
2023-05-09T03:36:50.346Z,65.29
2023-05-09T03:37:50.415Z,65.21
2023-05-09T03:38:50.445Z,65.27
2023-05-09T03:39:50.489Z,64.83
2023-05-09T03:40:50.469Z,64.89
2023-05-09T03:41:50.476Z,64.88
2023-05-09T03:42:51.097Z,64.97
2023-05-09T03:43:50.619Z,65.37
2023-05-09T03:44:50.669Z,65.50
2023-05-09T03:45:50.669Z,65.48
2023-05-09T03:46:50.846Z,65.37
2023-05-09T03:47:50.814Z,65.41
2023-05-09T03:48:50.809Z,65.31
2023-05-09T03:49:50.866Z,65.17
2023-05-09T03:50:50.875Z,64.68
2023-05-09T03:51:50.964Z,65.80
2023-05-09T03:52:50.891Z,65.92
2023-05-09T03:53:50.981Z,66.05
2023-05-09T03:54:50.957Z,66.00
2023-05-09T03:55:50.957Z,65.95
2023-05-09T03:56:50.993Z,65.91
2023-05-09T03:57:51.038Z,65.00
2023-05-09T03:58:51.184Z,65.01
2023-05-09T03:59:51.136Z,65.55
2023-05-09T04:00:51.212Z,65.31
2023-05-09T04:01:52.465Z,65.21
2023-05-09T04:02:51.417Z,66.08
2023-05-09T04:03:51.441Z,65.38
2023-05-09T04:04:51.347Z,65.10
2023-05-09T04:05:51.363Z,65.62
2023-05-09T04:06:52.570Z,65.48
2023-05-09T04:07:51.384Z,66.36
2023-05-09T04:08:51.472Z,66.48
2023-05-09T04:09:51.497Z,66.18
2023-05-09T04:10:51.565Z,66.01
2023-05-09T04:11:51.579Z,66.18
2023-05-09T04:12:51.631Z,65.97
2023-05-09T04:13:51.636Z,65.49
2023-05-09T04:14:51.778Z,65.68
2023-05-09T04:15:51.746Z,65.77
2023-05-09T04:16:51.768Z,66.17
2023-05-09T04:17:51.854Z,65.57
2023-05-09T04:18:51.852Z,65.70
2023-05-09T04:19:51.941Z,65.48
2023-05-09T04:20:51.950Z,65.70
2023-05-09T04:21:52.044Z,66.47
2023-05-09T04:22:52.078Z,66.13
2023-05-09T04:23:52.118Z,65.84
2023-05-09T04:24:52.137Z,66.28
2023-05-09T04:25:52.206Z,65.97
2023-05-09T04:26:52.206Z,65.80
2023-05-09T04:27:52.329Z,65.16
2023-05-09T04:28:52.298Z,64.91
2023-05-09T04:29:52.383Z,65.16
2023-05-09T04:30:52.619Z,65.26
2023-05-09T04:31:52.620Z,66.21
2023-05-09T04:32:52.580Z,66.43
2023-05-09T04:33:52.551Z,66.70
2023-05-09T04:34:52.597Z,66.06
2023-05-09T04:35:52.666Z,65.71
2023-05-09T04:36:52.720Z,65.60
2023-05-09T04:37:52.793Z,65.85
2023-05-09T04:38:52.807Z,65.78
2023-05-09T04:39:52.882Z,65.92
2023-05-09T04:40:52.854Z,65.97
2023-05-09T04:41:52.937Z,65.72
2023-05-09T04:42:52.982Z,66.08
2023-05-09T04:43:53.050Z,66.14
2023-05-09T04:44:53.102Z,66.72
2023-05-09T04:45:53.162Z,66.26
2023-05-09T04:46:53.209Z,66.20
2023-05-09T04:47:53.228Z,66.49
2023-05-09T04:48:53.189Z,66.55
2023-05-09T04:49:53.207Z,66.51
2023-05-09T04:50:53.279Z,66.53
2023-05-09T04:51:54.467Z,66.92
2023-05-09T04:52:53.386Z,67.41
2023-05-09T04:53:53.379Z,67.04
2023-05-09T04:54:53.401Z,67.14
2023-05-09T04:55:53.443Z,67.37
2023-05-09T04:56:57.941Z,66.84
2023-05-09T04:57:54.478Z,66.74
2023-05-09T04:58:53.474Z,66.78
2023-05-09T04:59:53.465Z,66.71
2023-05-09T05:02:13.181Z,66.41
2023-05-09T05:03:13.094Z,66.40
2023-05-09T05:04:13.475Z,66.60
2023-05-09T05:05:13.113Z,65.94
2023-05-09T05:06:13.109Z,65.87
2023-05-09T05:07:13.437Z,65.49
2023-05-09T05:08:13.106Z,65.38
2023-05-09T05:09:13.073Z,65.35
2023-05-09T05:10:13.042Z,64.86
2023-05-09T05:11:13.044Z,65.01
2023-05-09T05:12:13.068Z,64.78
2023-05-09T05:13:13.127Z,64.75
2023-05-09T05:14:13.029Z,64.39
2023-05-09T05:15:13.422Z,64.54
2023-05-09T05:16:13.078Z,63.96
2023-05-09T05:17:13.016Z,63.67
2023-05-09T05:18:13.095Z,63.85
2023-05-09T05:19:12.989Z,63.25
2023-05-09T05:20:13.069Z,63.22
2023-05-09T05:21:13.062Z,63.40
2023-05-09T05:22:13.072Z,63.28
2023-05-09T05:23:13.000Z,63.23
2023-05-09T05:24:13.332Z,63.62
2023-05-09T05:25:13.134Z,63.54
2023-05-09T05:26:12.986Z,63.44
2023-05-09T05:27:12.965Z,63.19
2023-05-09T05:28:13.328Z,63.15
2023-05-09T05:29:13.093Z,63.46
2023-05-09T05:30:13.249Z,63.47
2023-05-09T05:31:12.957Z,62.96
2023-05-09T05:32:13.062Z,62.73
2023-05-09T05:33:12.901Z,62.57
2023-05-09T05:34:12.964Z,62.95
2023-05-09T05:35:13.840Z,63.00
2023-05-09T05:36:12.949Z,63.98
2023-05-09T05:37:13.009Z,63.90
2023-05-09T05:38:12.948Z,64.09
2023-05-09T05:39:13.329Z,63.50
2023-05-09T05:40:13.296Z,62.65
2023-05-09T05:41:12.918Z,62.82
2023-05-09T05:42:13.410Z,62.91
2023-05-09T05:43:13.883Z,62.21
2023-05-09T05:44:12.948Z,62.69
2023-05-09T05:45:13.123Z,62.40
2023-05-09T05:47:40.575Z,62.04
2023-05-09T05:48:32.940Z,61.74
2023-05-09T05:49:32.955Z,61.44
2023-05-09T05:50:32.923Z,61.14
2023-05-09T05:51:32.882Z,61.19
2023-05-09T05:52:32.899Z,61.51
2023-05-09T05:53:32.987Z,61.38
2023-05-09T05:54:32.979Z,62.13
2023-05-09T05:55:33.054Z,61.80
2023-05-09T05:56:33.014Z,61.35
2023-05-09T05:57:32.993Z,61.46
2023-05-09T05:58:33.032Z,60.93
2023-05-09T05:59:33.039Z,60.95
2023-05-09T06:00:33.029Z,60.98
2023-05-09T06:01:33.029Z,60.05
2023-05-09T06:02:33.224Z,59.94
2023-05-09T06:03:33.190Z,60.10
2023-05-09T06:04:33.986Z,60.27
2023-05-09T06:05:33.297Z,60.55
2023-05-09T06:06:33.299Z,60.44
2023-05-09T06:07:33.543Z,60.90
2023-05-09T06:08:33.343Z,61.15
2023-05-09T06:09:33.416Z,60.74
2023-05-09T06:10:33.457Z,61.15
2023-05-09T06:11:33.501Z,60.65
2023-05-09T06:12:33.545Z,60.84
2023-05-09T06:13:33.536Z,60.90
2023-05-09T06:14:33.606Z,61.32
2023-05-09T06:15:33.621Z,61.68
2023-05-09T06:16:33.667Z,61.18
2023-05-09T06:17:33.767Z,60.94
2023-05-09T06:18:33.749Z,60.82
2023-05-09T06:19:33.824Z,60.69
2023-05-09T06:20:33.868Z,60.04
2023-05-09T06:21:33.868Z,60.70
2023-05-09T06:22:33.860Z,61.15
2023-05-09T06:23:33.859Z,62.22
2023-05-09T06:24:36.277Z,61.90
2023-05-09T06:25:33.888Z,61.56
2023-05-09T06:26:33.889Z,61.46
2023-05-09T06:27:34.027Z,61.16
2023-05-09T06:28:33.859Z,61.49
2023-05-09T06:29:33.846Z,61.48
2023-05-09T06:30:33.837Z,61.33
2023-05-09T06:31:34.001Z,61.74
2023-05-09T06:32:33.913Z,61.01
2023-05-09T06:33:33.822Z,60.77
2023-05-09T06:34:33.802Z,61.24
2023-05-09T06:35:33.776Z,61.39
2023-05-09T06:36:33.796Z,60.85
2023-05-09T06:37:34.112Z,59.45
2023-05-09T06:38:33.997Z,58.75
2023-05-09T06:39:33.860Z,58.56
2023-05-09T06:40:33.835Z,58.52
2023-05-09T06:41:33.719Z,58.65
2023-05-09T06:42:34.029Z,58.69
2023-05-09T06:43:33.872Z,59.20
2023-05-09T06:44:33.729Z,59.31
2023-05-09T06:45:33.788Z,59.03
2023-05-09T06:46:33.846Z,58.86
2023-05-09T06:47:34.031Z,58.70
2023-05-09T06:48:33.737Z,59.53
2023-05-09T06:49:33.725Z,60.04
2023-05-09T06:50:33.667Z,59.76
2023-05-09T06:51:33.730Z,59.99
2023-05-09T06:52:33.754Z,59.89
2023-05-09T06:53:34.083Z,58.96
2023-05-09T06:54:33.720Z,60.13
2023-05-09T06:55:33.677Z,59.22
2023-05-09T06:56:33.729Z,59.18
2023-05-09T06:57:33.645Z,58.48
2023-05-09T06:58:34.056Z,58.11
2023-05-09T06:59:33.695Z,57.73
2023-05-09T07:00:33.704Z,58.60
2023-05-09T07:01:33.716Z,59.45
2023-05-09T07:02:33.676Z,58.96
2023-05-09T07:03:33.717Z,59.68
2023-05-09T07:04:33.653Z,62.14
2023-05-09T07:05:33.712Z,61.70
2023-05-09T07:06:33.626Z,62.03
2023-05-09T07:07:33.639Z,61.74
2023-05-09T07:08:34.731Z,61.99
2023-05-09T07:09:33.656Z,62.07
2023-05-09T07:10:33.612Z,62.46
2023-05-09T07:11:33.626Z,62.49
2023-05-09T07:12:33.592Z,62.33
2023-05-09T07:13:34.120Z,61.65
2023-05-09T07:14:33.556Z,61.39
2023-05-09T07:15:41.508Z,61.79
2023-05-09T07:16:37.249Z,61.56
2023-05-09T07:17:33.655Z,60.74
2023-05-09T07:18:34.049Z,60.53
2023-05-09T07:19:33.631Z,60.71
2023-05-09T07:20:33.538Z,61.59
2023-05-09T07:21:33.484Z,61.25
2023-05-09T07:22:35.539Z,61.08
2023-05-09T07:23:33.756Z,60.36
2023-05-09T07:24:33.656Z,60.16
2023-05-09T07:25:33.558Z,60.73
2023-05-09T07:26:33.485Z,60.08
2023-05-09T07:27:33.495Z,59.85
2023-05-09T07:28:34.095Z,60.26
2023-05-09T07:29:33.490Z,60.38
2023-05-09T07:30:33.486Z,59.61
2023-05-09T07:31:35.993Z,58.85
2023-05-09T07:32:33.500Z,59.33
2023-05-09T07:33:33.549Z,59.39
2023-05-09T07:34:33.578Z,59.18
2023-05-09T07:35:33.380Z,58.96
2023-05-09T07:36:35.509Z,58.50
2023-05-09T07:37:33.456Z,57.85
2023-05-09T07:38:33.558Z,58.38
2023-05-09T07:39:33.450Z,58.71
2023-05-09T07:40:33.365Z,58.98
2023-05-09T07:41:33.445Z,59.57
2023-05-09T07:42:33.383Z,58.96
2023-05-09T07:43:33.682Z,59.01
2023-05-09T07:44:33.369Z,59.16
2023-05-09T07:45:33.432Z,58.83
2023-05-09T07:46:33.350Z,59.28
2023-05-09T07:47:33.395Z,59.47
2023-05-09T07:48:33.616Z,59.95
2023-05-09T07:49:33.406Z,58.97
2023-05-09T07:50:33.346Z,59.08
2023-05-09T07:51:33.314Z,58.39
2023-05-09T07:52:33.355Z,58.30
2023-05-09T07:53:33.437Z,58.38
2023-05-09T07:54:33.530Z,58.26
2023-05-09T07:55:33.523Z,58.15
2023-05-09T07:56:33.564Z,58.50
2023-05-09T07:57:33.631Z,57.78
2023-05-09T07:58:33.670Z,57.37
2023-05-09T07:59:33.696Z,57.15
2023-05-09T08:00:33.764Z,57.61
2023-05-09T08:01:33.761Z,57.78
2023-05-09T08:02:33.901Z,58.12
2023-05-09T08:03:33.993Z,58.03
2023-05-09T08:04:33.940Z,57.88
2023-05-09T08:05:33.849Z,58.36
2023-05-09T08:06:33.866Z,58.29
2023-05-09T08:07:33.841Z,58.15
2023-05-09T08:08:33.883Z,57.23
2023-05-09T08:09:34.079Z,58.27
2023-05-09T08:10:33.875Z,57.09
2023-05-09T08:11:33.907Z,57.79
2023-05-09T08:12:33.902Z,57.82
2023-05-09T08:13:34.627Z,57.18
2023-05-09T08:14:34.088Z,57.21
2023-05-09T08:15:34.046Z,57.61
2023-05-09T08:16:34.095Z,56.72
2023-05-09T08:17:33.978Z,57.72
2023-05-09T08:18:34.061Z,58.28
2023-05-09T08:19:34.133Z,57.84
2023-05-09T08:20:34.068Z,56.67
2023-05-09T08:21:34.257Z,56.41
2023-05-09T08:22:34.246Z,57.15
2023-05-09T08:23:34.361Z,57.21
2023-05-09T08:24:34.642Z,56.68
2023-05-09T08:25:34.378Z,56.22
2023-05-09T08:26:34.413Z,54.73
2023-05-09T08:27:34.404Z,53.82
2023-05-09T08:28:34.513Z,53.08
2023-05-09T08:29:34.525Z,53.53
2023-05-09T08:30:34.513Z,52.94
2023-05-09T08:31:34.648Z,52.63
2023-05-09T08:32:34.769Z,52.73
2023-05-09T08:33:34.756Z,52.40
2023-05-09T08:34:35.584Z,51.40
2023-05-09T08:35:35.607Z,51.03
2023-05-09T08:36:34.792Z,51.43
2023-05-09T08:37:34.803Z,52.26
2023-05-09T08:38:34.887Z,52.94
2023-05-09T08:39:35.099Z,52.66
2023-05-09T08:40:34.891Z,52.68
2023-05-09T08:41:35.004Z,53.09
2023-05-09T08:42:35.066Z,53.67
2023-05-09T08:43:35.104Z,53.97
2023-05-09T08:44:35.647Z,54.36
2023-05-09T08:45:35.252Z,54.15
2023-05-09T08:46:35.287Z,54.02
2023-05-09T08:47:35.398Z,53.87
2023-05-09T08:48:36.051Z,53.70
2023-05-09T08:49:35.685Z,54.18
2023-05-09T08:50:35.678Z,54.35
2023-05-09T08:51:35.585Z,54.42
2023-05-09T08:52:35.555Z,54.56
2023-05-09T08:53:35.622Z,53.59
2023-05-09T08:54:36.107Z,53.70
2023-05-09T08:55:35.714Z,54.46
2023-05-09T08:56:35.747Z,54.12
2023-05-09T08:57:35.847Z,53.91
2023-05-09T08:58:35.847Z,54.30
2023-05-09T08:59:35.879Z,53.88
2023-05-09T09:00:35.865Z,54.05
2023-05-09T09:01:36.045Z,53.68
2023-05-09T09:02:35.911Z,53.58
2023-05-09T09:03:35.970Z,52.93
2023-05-09T09:04:36.134Z,52.27
2023-05-09T09:06:36.105Z,50.96
2023-05-09T09:07:36.100Z,50.76
2023-05-09T09:08:36.091Z,50.24
2023-05-09T09:09:36.158Z,50.09
2023-05-09T09:10:36.266Z,49.36
2023-05-09T09:11:36.060Z,49.04
2023-05-09T09:12:36.035Z,47.59
2023-05-09T09:13:36.201Z,47.71
2023-05-09T09:14:36.152Z,48.18
2023-05-09T09:15:36.496Z,47.49
2023-05-09T09:16:36.072Z,46.46
2023-05-09T09:17:36.125Z,45.98
2023-05-09T09:18:36.059Z,46.65
2023-05-09T09:19:36.106Z,47.61
2023-05-09T09:20:35.986Z,47.56
2023-05-09T09:21:36.119Z,47.56
2023-05-09T09:22:36.017Z,47.09
2023-05-09T09:23:36.032Z,47.02
2023-05-09T09:24:36.036Z,46.42
2023-05-09T09:25:36.035Z,46.38
2023-05-09T09:26:35.993Z,45.98
2023-05-09T09:27:35.949Z,45.28
2023-05-09T09:28:35.958Z,45.73
2023-05-09T09:29:35.947Z,46.33
2023-05-09T09:30:36.152Z,45.63
2023-05-09T09:31:35.936Z,45.43
2023-05-09T09:32:35.995Z,45.78
2023-05-09T09:33:35.994Z,44.90
2023-05-09T09:34:35.888Z,44.00
2023-05-09T09:35:35.922Z,43.70
2023-05-09T09:36:35.902Z,43.58
2023-05-09T09:37:35.950Z,44.54
2023-05-09T09:38:35.924Z,45.55
2023-05-09T09:39:35.915Z,45.53
2023-05-09T09:40:36.073Z,44.70
2023-05-09T09:41:35.943Z,44.86
2023-05-09T09:42:36.056Z,44.69
2023-05-09T09:43:36.176Z,44.24
2023-05-09T09:44:36.108Z,44.79
2023-05-09T09:45:36.718Z,44.65
2023-05-09T09:46:36.397Z,45.42
2023-05-09T09:47:36.259Z,44.21
2023-05-09T09:48:36.216Z,43.72
2023-05-09T09:49:36.318Z,42.70
2023-05-09T09:50:37.127Z,42.45
2023-05-09T09:51:36.327Z,41.85
2023-05-09T09:52:36.339Z,41.93
2023-05-09T09:53:36.342Z,41.74
2023-05-09T09:54:36.461Z,41.81
2023-05-09T09:55:36.526Z,41.94
2023-05-09T09:56:36.471Z,41.80
2023-05-09T09:57:36.484Z,41.51
2023-05-09T09:58:36.477Z,41.12
2023-05-09T09:59:36.569Z,41.74
2023-05-09T10:00:36.583Z,42.57
2023-05-09T10:01:36.699Z,42.99
2023-05-09T10:02:36.715Z,42.92
2023-05-09T10:03:36.753Z,42.79
2023-05-09T10:04:36.842Z,42.27
2023-05-09T10:05:36.805Z,42.38
2023-05-09T10:06:36.716Z,42.03
2023-05-09T10:07:36.760Z,41.96
2023-05-09T10:08:36.848Z,41.80
2023-05-09T10:09:36.856Z,42.32
2023-05-09T10:10:36.961Z,42.61
2023-05-09T10:11:36.950Z,41.31
2023-05-09T10:12:36.899Z,41.98
2023-05-09T10:13:36.984Z,41.24
2023-05-09T10:14:38.008Z,40.98
2023-05-09T10:15:49.291Z,41.41
2023-05-09T10:16:43.928Z,42.03
2023-05-09T10:17:38.123Z,41.41
2023-05-09T10:18:37.211Z,41.84
2023-05-09T10:19:36.937Z,41.62
2023-05-09T10:20:37.942Z,40.92
2023-05-09T10:21:38.027Z,41.63
2023-05-09T10:22:36.934Z,41.94
2023-05-09T10:23:36.947Z,41.41
2023-05-09T10:24:36.971Z,41.74
2023-05-09T10:25:37.091Z,41.48
2023-05-09T10:26:36.884Z,41.46
2023-05-09T10:27:36.871Z,39.88
2023-05-09T10:28:36.979Z,40.08
2023-05-09T10:29:36.930Z,38.95
2023-05-09T10:30:36.998Z,39.50
2023-05-09T10:31:37.059Z,39.85
2023-05-09T10:32:37.041Z,39.68
2023-05-09T10:33:37.099Z,39.92
2023-05-09T10:34:37.094Z,39.77
2023-05-09T10:35:37.712Z,39.60
2023-05-09T10:36:37.252Z,39.50
2023-05-09T10:37:38.185Z,39.13
2023-05-09T10:38:38.170Z,39.48
2023-05-09T10:39:37.264Z,39.45
2023-05-09T10:40:37.687Z,39.22
2023-05-09T10:41:37.290Z,38.23
2023-05-09T10:42:37.404Z,38.64
2023-05-09T10:43:37.388Z,37.85
2023-05-09T10:44:37.436Z,37.16
2023-05-09T10:45:37.450Z,36.89
2023-05-09T10:46:37.588Z,36.26
2023-05-09T10:47:37.689Z,36.03
2023-05-09T10:48:37.621Z,36.68
2023-05-09T10:49:37.756Z,37.10
2023-05-09T10:50:37.781Z,37.00
2023-05-09T10:51:37.765Z,36.78
2023-05-09T10:52:37.800Z,36.85
2023-05-09T10:53:37.897Z,37.26
2023-05-09T10:54:37.891Z,37.10
2023-05-09T10:55:37.971Z,37.38
2023-05-09T10:56:37.876Z,37.09
2023-05-09T10:57:37.891Z,36.86
2023-05-09T10:58:37.910Z,36.63
2023-05-09T10:59:38.007Z,36.59
2023-05-09T11:00:38.030Z,36.56
2023-05-09T11:01:38.073Z,36.38
2023-05-09T11:02:38.052Z,36.19
2023-05-09T11:03:38.084Z,35.92
2023-05-09T11:04:38.050Z,35.09
2023-05-09T11:05:38.159Z,34.86
2023-05-09T11:06:38.624Z,35.10
2023-05-09T11:07:38.162Z,34.71
2023-05-09T11:08:38.090Z,34.94
2023-05-09T11:09:38.441Z,35.70
2023-05-09T11:10:38.197Z,35.76
2023-05-09T11:11:38.689Z,36.07
2023-05-09T11:12:38.206Z,35.55
2023-05-09T11:13:38.316Z,34.98
2023-05-09T11:14:38.352Z,34.72
2023-05-09T11:15:38.268Z,34.28
2023-05-09T11:16:38.711Z,34.94
2023-05-09T11:17:38.523Z,34.75
2023-05-09T11:18:38.624Z,34.48
2023-05-09T11:19:38.583Z,34.61
2023-05-09T11:20:38.573Z,33.05
2023-05-09T11:21:38.606Z,33.42
2023-05-09T11:22:39.210Z,33.13
2023-05-09T11:23:38.580Z,32.92
2023-05-09T11:24:38.714Z,32.42
2023-05-09T11:25:39.239Z,32.65
2023-05-09T11:26:40.157Z,32.69
2023-05-09T11:27:38.811Z,31.68
2023-05-09T11:28:38.961Z,32.13
2023-05-09T11:29:38.936Z,32.52
2023-05-09T11:30:38.965Z,32.52
2023-05-09T11:31:39.193Z,32.44
2023-05-09T11:32:39.126Z,32.03
2023-05-09T11:33:39.191Z,32.34
2023-05-09T11:34:39.189Z,30.66
2023-05-09T11:35:39.645Z,30.94
2023-05-09T11:36:39.286Z,31.23
2023-05-09T11:37:39.334Z,30.65
2023-05-09T11:38:39.248Z,30.66
2023-05-09T11:39:39.333Z,30.42
2023-05-09T11:40:39.420Z,30.84
2023-05-09T11:41:39.561Z,29.12
2023-05-09T11:42:39.479Z,29.62
2023-05-09T11:43:39.528Z,29.03
2023-05-09T11:44:39.559Z,28.85
2023-05-09T11:45:39.689Z,29.61
2023-05-09T11:46:40.125Z,29.73
2023-05-09T11:47:39.728Z,29.89
2023-05-09T11:48:39.712Z,30.30
2023-05-09T11:49:39.782Z,30.24
2023-05-09T11:50:39.720Z,29.61
2023-05-09T11:51:39.749Z,29.66
2023-05-09T11:52:39.731Z,29.84
2023-05-09T11:53:39.747Z,28.97
2023-05-09T11:54:39.847Z,28.92
2023-05-09T11:55:39.878Z,29.37
2023-05-09T11:56:39.880Z,29.05
2023-05-09T11:57:39.868Z,30.28
2023-05-09T11:58:39.871Z,28.65
2023-05-09T11:59:39.862Z,27.93
2023-05-09T12:00:39.797Z,26.68
2023-05-09T12:01:39.813Z,26.54
2023-05-09T12:02:39.941Z,26.57
2023-05-09T12:03:39.915Z,26.82
2023-05-09T12:04:39.950Z,26.74
2023-05-09T12:05:39.811Z,26.62
2023-05-09T12:06:39.807Z,26.84
2023-05-09T12:07:39.826Z,27.45
2023-05-09T12:08:39.794Z,27.06
2023-05-09T12:09:39.826Z,26.53
2023-05-09T12:10:39.844Z,26.43
2023-05-09T12:11:39.932Z,25.66
2023-05-09T12:12:39.958Z,26.17
2023-05-09T12:13:40.071Z,26.11
2023-05-09T12:14:40.063Z,25.52
2023-05-09T12:15:40.241Z,24.61
2023-05-09T12:16:40.303Z,25.61
2023-05-09T12:17:40.262Z,25.09
2023-05-09T12:18:40.232Z,24.33
2023-05-09T12:19:40.310Z,24.92
2023-05-09T12:20:40.375Z,24.89
2023-05-09T12:21:41.153Z,25.07
2023-05-09T12:22:40.432Z,25.63
2023-05-09T12:23:40.436Z,25.69
2023-05-09T12:24:40.472Z,26.47
2023-05-09T12:25:40.488Z,26.99
2023-05-09T12:26:40.551Z,24.40
2023-05-09T12:27:40.605Z,24.33
2023-05-09T12:28:40.571Z,24.52
2023-05-09T12:29:40.639Z,24.64
2023-05-09T12:30:40.618Z,24.81
2023-05-09T12:31:40.742Z,25.29
2023-05-09T12:32:40.745Z,25.49
2023-05-09T12:33:40.625Z,25.45
2023-05-09T12:34:40.732Z,25.56
2023-05-09T12:35:40.870Z,25.86
2023-05-09T12:36:40.830Z,25.89
2023-05-09T12:37:40.829Z,26.05
2023-05-09T12:38:40.882Z,26.13
2023-05-09T12:39:40.827Z,26.08
2023-05-09T12:40:41.151Z,25.55
2023-05-09T12:41:49.858Z,25.70
2023-05-09T12:42:41.830Z,25.78
2023-05-09T12:43:40.819Z,25.51
2023-05-09T12:44:40.812Z,26.32
2023-05-09T12:45:40.914Z,24.69
2023-05-09T12:46:40.854Z,24.94
2023-05-09T12:47:40.815Z,24.98
2023-05-09T12:48:40.810Z,24.38
2023-05-09T12:49:40.803Z,24.70
2023-05-09T12:50:40.837Z,23.76
2023-05-09T12:51:40.864Z,25.08
2023-05-09T12:52:50.654Z,24.71
2023-05-09T12:53:41.782Z,24.25
2023-05-09T12:54:40.753Z,24.39
2023-05-09T12:55:40.769Z,24.70
2023-05-09T12:56:40.742Z,25.21